sensor_id;sensor_type;location;lat;lon;timestamp;P1;durP1;ratioP1;P2;durP2;ratioP2
20739;SDS011;10530;49.968;19.844;2024-01-30T00:04:32;30.92;;;11.25;;
20739;SDS011;10530;49.968;19.844;2024-01-30T00:09:35;37.23;;;12.03;;
20739;SDS011;10530;49.968;19.844;2024-01-30T00:14:40;34.67;;;12.90;;
20739;SDS011;10530;49.968;19.844;2024-01-30T00:19:45;19.87;;;9.90;;
20739;SDS011;10530;49.968;19.844;2024-01-30T00:24:48;33.65;;;11.98;;
20739;SDS011;10530;49.968;19.844;2024-01-30T00:29:51;25.17;;;10.20;;
20739;SDS011;10530;49.968;19.844;2024-01-30T00:34:54;34.83;;;12.87;;
20739;SDS011;10530;49.968;19.844;2024-01-30T00:39:58;32.20;;;12.02;;
20739;SDS011;10530;49.968;19.844;2024-01-30T00:45:01;32.03;;;10.57;;
20739;SDS011;10530;49.968;19.844;2024-01-30T00:50:04;21.98;;;11.10;;
20739;SDS011;10530;49.968;19.844;2024-01-30T00:55:07;26.35;;;11.23;;
20739;SDS011;10530;49.968;19.844;2024-01-30T01:00:12;22.40;;;11.87;;
20739;SDS011;10530;49.968;19.844;2024-01-30T01:05:17;23.17;;;12.30;;
20739;SDS011;10530;49.968;19.844;2024-01-30T01:10:20;16.53;;;9.83;;
20739;SDS011;10530;49.968;19.844;2024-01-30T01:15:24;20.48;;;10.43;;
20739;SDS011;10530;49.968;19.844;2024-01-30T01:20:31;31.40;;;13.07;;
20739;SDS011;10530;49.968;19.844;2024-01-30T01:25:33;33.90;;;13.47;;
20739;SDS011;10530;49.968;19.844;2024-01-30T01:30:36;39.75;;;13.25;;
20739;SDS011;10530;49.968;19.844;2024-01-30T01:35:40;29.30;;;12.47;;
20739;SDS011;10530;49.968;19.844;2024-01-30T01:40:43;35.78;;;13.52;;
20739;SDS011;10530;49.968;19.844;2024-01-30T01:45:46;32.75;;;13.85;;
20739;SDS011;10530;49.968;19.844;2024-01-30T01:50:49;38.63;;;13.97;;
20739;SDS011;10530;49.968;19.844;2024-01-30T01:55:52;36.97;;;13.90;;
20739;SDS011;10530;49.968;19.844;2024-01-30T02:00:57;32.63;;;15.03;;
20739;SDS011;10530;49.968;19.844;2024-01-30T02:06:00;31.10;;;11.48;;
20739;SDS011;10530;49.968;19.844;2024-01-30T02:11:04;32.00;;;11.52;;
20739;SDS011;10530;49.968;19.844;2024-01-30T02:16:07;27.37;;;11.13;;
20739;SDS011;10530;49.968;19.844;2024-01-30T02:21:10;33.05;;;12.68;;
20739;SDS011;10530;49.968;19.844;2024-01-30T02:26:13;34.37;;;13.10;;
20739;SDS011;10530;49.968;19.844;2024-01-30T02:31:16;21.90;;;10.43;;
20739;SDS011;10530;49.968;19.844;2024-01-30T02:36:19;33.22;;;10.60;;
20739;SDS011;10530;49.968;19.844;2024-01-30T02:41:22;26.77;;;10.30;;
20739;SDS011;10530;49.968;19.844;2024-01-30T02:46:25;26.88;;;10.40;;
20739;SDS011;10530;49.968;19.844;2024-01-30T02:51:29;25.27;;;10.07;;
20739;SDS011;10530;49.968;19.844;2024-01-30T02:56:32;19.42;;;8.30;;
20739;SDS011;10530;49.968;19.844;2024-01-30T03:01:42;25.90;;;10.48;;
20739;SDS011;10530;49.968;19.844;2024-01-30T03:06:45;32.03;;;13.03;;
20739;SDS011;10530;49.968;19.844;2024-01-30T03:11:51;30.17;;;11.77;;
20739;SDS011;10530;49.968;19.844;2024-01-30T03:16:54;20.57;;;8.80;;
20739;SDS011;10530;49.968;19.844;2024-01-30T03:21:57;32.80;;;11.70;;
20739;SDS011;10530;49.968;19.844;2024-01-30T03:27:00;25.85;;;11.82;;
20739;SDS011;10530;49.968;19.844;2024-01-30T03:32:03;26.10;;;10.70;;
20739;SDS011;10530;49.968;19.844;2024-01-30T03:37:06;31.20;;;11.57;;
20739;SDS011;10530;49.968;19.844;2024-01-30T03:42:09;24.67;;;9.70;;
20739;SDS011;10530;49.968;19.844;2024-01-30T03:47:13;19.95;;;8.43;;
20739;SDS011;10530;49.968;19.844;2024-01-30T03:52:16;27.42;;;11.88;;
20739;SDS011;10530;49.968;19.844;2024-01-30T03:57:19;16.50;;;7.13;;
20739;SDS011;10530;49.968;19.844;2024-01-30T04:02:23;23.05;;;11.20;;
20739;SDS011;10530;49.968;19.844;2024-01-30T04:07:27;27.20;;;13.07;;
20739;SDS011;10530;49.968;19.844;2024-01-30T04:12:31;22.05;;;11.40;;
20739;SDS011;10530;49.968;19.844;2024-01-30T04:17:34;26.33;;;10.07;;
20739;SDS011;10530;49.968;19.844;2024-01-30T04:22:37;30.83;;;13.30;;
20739;SDS011;10530;49.968;19.844;2024-01-30T04:27:40;24.05;;;10.68;;
20739;SDS011;10530;49.968;19.844;2024-01-30T04:32:43;26.97;;;10.53;;
20739;SDS011;10530;49.968;19.844;2024-01-30T04:37:47;31.92;;;12.45;;
20739;SDS011;10530;49.968;19.844;2024-01-30T04:42:49;24.45;;;9.18;;
20739;SDS011;10530;49.968;19.844;2024-01-30T04:47:53;18.57;;;8.90;;
20739;SDS011;10530;49.968;19.844;2024-01-30T04:52:56;22.38;;;10.75;;
20739;SDS011;10530;49.968;19.844;2024-01-30T04:57:59;25.87;;;10.77;;
20739;SDS011;10530;49.968;19.844;2024-01-30T05:03:02;33.88;;;12.43;;
20739;SDS011;10530;49.968;19.844;2024-01-30T05:08:05;23.50;;;9.82;;
20739;SDS011;10530;49.968;19.844;2024-01-30T05:13:08;16.13;;;6.87;;
20739;SDS011;10530;49.968;19.844;2024-01-30T05:18:11;19.52;;;9.75;;
20739;SDS011;10530;49.968;19.844;2024-01-30T05:23:14;19.80;;;7.97;;
20739;SDS011;10530;49.968;19.844;2024-01-30T05:28:17;20.30;;;9.88;;
20739;SDS011;10530;49.968;19.844;2024-01-30T05:33:20;21.98;;;9.10;;
20739;SDS011;10530;49.968;19.844;2024-01-30T05:38:24;14.70;;;7.73;;
20739;SDS011;10530;49.968;19.844;2024-01-30T05:43:27;17.90;;;7.72;;
20739;SDS011;10530;49.968;19.844;2024-01-30T05:48:30;15.87;;;7.97;;
20739;SDS011;10530;49.968;19.844;2024-01-30T05:53:33;19.02;;;8.82;;
20739;SDS011;10530;49.968;19.844;2024-01-30T05:58:35;24.88;;;9.32;;
20739;SDS011;10530;49.968;19.844;2024-01-30T06:03:39;18.50;;;8.50;;
20739;SDS011;10530;49.968;19.844;2024-01-30T06:08:42;17.20;;;7.63;;
20739;SDS011;10530;49.968;19.844;2024-01-30T06:13:46;15.57;;;7.83;;
20739;SDS011;10530;49.968;19.844;2024-01-30T06:18:49;15.23;;;7.68;;
20739;SDS011;10530;49.968;19.844;2024-01-30T06:23:52;16.77;;;7.97;;
20739;SDS011;10530;49.968;19.844;2024-01-30T06:28:55;17.07;;;7.33;;
20739;SDS011;10530;49.968;19.844;2024-01-30T06:33:58;18.70;;;6.25;;
20739;SDS011;10530;49.968;19.844;2024-01-30T06:39:02;13.73;;;7.03;;
20739;SDS011;10530;49.968;19.844;2024-01-30T06:44:05;25.50;;;9.15;;
20739;SDS011;10530;49.968;19.844;2024-01-30T06:49:10;16.15;;;7.28;;
20739;SDS011;10530;49.968;19.844;2024-01-30T06:54:13;21.93;;;8.77;;
20739;SDS011;10530;49.968;19.844;2024-01-30T06:59:16;21.30;;;7.20;;
20739;SDS011;10530;49.968;19.844;2024-01-30T07:04:19;19.53;;;8.47;;
20739;SDS011;10530;49.968;19.844;2024-01-30T07:09:23;23.67;;;8.38;;
20739;SDS011;10530;49.968;19.844;2024-01-30T07:14:26;26.38;;;7.70;;
20739;SDS011;10530;49.968;19.844;2024-01-30T07:19:29;26.13;;;10.57;;
20739;SDS011;10530;49.968;19.844;2024-01-30T07:24:33;28.42;;;11.55;;
20739;SDS011;10530;49.968;19.844;2024-01-30T07:29:36;28.73;;;12.00;;
20739;SDS011;10530;49.968;19.844;2024-01-30T07:34:39;27.33;;;10.20;;
20739;SDS011;10530;49.968;19.844;2024-01-30T07:39:59;26.55;;;10.82;;
20739;SDS011;10530;49.968;19.844;2024-01-30T07:45:03;45.50;;;15.37;;
20739;SDS011;10530;49.968;19.844;2024-01-30T07:50:07;31.27;;;13.57;;
20739;SDS011;10530;49.968;19.844;2024-01-30T07:55:10;32.10;;;15.43;;
20739;SDS011;10530;49.968;19.844;2024-01-30T08:00:15;47.42;;;17.50;;
20739;SDS011;10530;49.968;19.844;2024-01-30T08:05:18;47.38;;;18.40;;
20739;SDS011;10530;49.968;19.844;2024-01-30T08:10:21;54.47;;;21.57;;
20739;SDS011;10530;49.968;19.844;2024-01-30T08:15:25;49.33;;;21.25;;
20739;SDS011;10530;49.968;19.844;2024-01-30T08:20:28;53.43;;;21.80;;
20739;SDS011;10530;49.968;19.844;2024-01-30T08:25:31;57.53;;;23.13;;
20739;SDS011;10530;49.968;19.844;2024-01-30T08:30:34;57.90;;;24.33;;
20739;SDS011;10530;49.968;19.844;2024-01-30T08:35:37;65.40;;;24.60;;
20739;SDS011;10530;49.968;19.844;2024-01-30T08:40:40;64.28;;;28.88;;
20739;SDS011;10530;49.968;19.844;2024-01-30T08:45:44;65.80;;;28.50;;
20739;SDS011;10530;49.968;19.844;2024-01-30T08:50:47;60.92;;;26.00;;
20739;SDS011;10530;49.968;19.844;2024-01-30T08:55:50;42.97;;;20.52;;
20739;SDS011;10530;49.968;19.844;2024-01-30T09:00:53;53.53;;;23.67;;
20739;SDS011;10530;49.968;19.844;2024-01-30T09:05:56;44.78;;;23.13;;
20739;SDS011;10530;49.968;19.844;2024-01-30T09:10:59;42.97;;;19.67;;
20739;SDS011;10530;49.968;19.844;2024-01-30T09:16:03;47.63;;;21.92;;
20739;SDS011;10530;49.968;19.844;2024-01-30T09:21:06;37.80;;;18.23;;
20739;SDS011;10530;49.968;19.844;2024-01-30T09:26:09;41.33;;;19.07;;
20739;SDS011;10530;49.968;19.844;2024-01-30T09:31:12;43.83;;;20.15;;
20739;SDS011;10530;49.968;19.844;2024-01-30T09:36:15;44.40;;;20.13;;
20739;SDS011;10530;49.968;19.844;2024-01-30T09:41:20;39.08;;;18.10;;
20739;SDS011;10530;49.968;19.844;2024-01-30T09:46:27;57.22;;;25.67;;
20739;SDS011;10530;49.968;19.844;2024-01-30T09:51:31;40.70;;;20.37;;
20739;SDS011;10530;49.968;19.844;2024-01-30T09:56:34;54.67;;;25.48;;
20739;SDS011;10530;49.968;19.844;2024-01-30T10:01:37;45.87;;;23.17;;
20739;SDS011;10530;49.968;19.844;2024-01-30T10:06:41;58.80;;;24.10;;
20739;SDS011;10530;49.968;19.844;2024-01-30T10:11:45;49.55;;;24.20;;
20739;SDS011;10530;49.968;19.844;2024-01-30T10:16:48;51.17;;;23.07;;
20739;SDS011;10530;49.968;19.844;2024-01-30T10:21:51;47.40;;;21.20;;
20739;SDS011;10530;49.968;19.844;2024-01-30T10:26:55;42.03;;;21.27;;
20739;SDS011;10530;49.968;19.844;2024-01-30T10:32:03;35.15;;;17.70;;
20739;SDS011;10530;49.968;19.844;2024-01-30T10:37:07;38.53;;;18.17;;
20739;SDS011;10530;49.968;19.844;2024-01-30T10:42:15;38.27;;;17.10;;
20739;SDS011;10530;49.968;19.844;2024-01-30T10:47:21;31.42;;;15.82;;
20739;SDS011;10530;49.968;19.844;2024-01-30T10:52:29;34.30;;;16.00;;
20739;SDS011;10530;49.968;19.844;2024-01-30T10:57:33;32.92;;;15.70;;
20739;SDS011;10530;49.968;19.844;2024-01-30T11:02:38;35.20;;;16.27;;
20739;SDS011;10530;49.968;19.844;2024-01-30T11:07:42;30.47;;;15.50;;
20739;SDS011;10530;49.968;19.844;2024-01-30T11:12:45;30.48;;;14.88;;
20739;SDS011;10530;49.968;19.844;2024-01-30T11:17:50;30.77;;;14.30;;
20739;SDS011;10530;49.968;19.844;2024-01-30T11:22:55;26.67;;;13.68;;
20739;SDS011;10530;49.968;19.844;2024-01-30T11:27:59;32.33;;;16.00;;
20739;SDS011;10530;49.968;19.844;2024-01-30T11:33:09;32.23;;;15.87;;
20739;SDS011;10530;49.968;19.844;2024-01-30T11:38:16;34.70;;;15.98;;
20739;SDS011;10530;49.968;19.844;2024-01-30T11:43:19;35.40;;;17.17;;
20739;SDS011;10530;49.968;19.844;2024-01-30T11:48:22;40.30;;;19.58;;
20739;SDS011;10530;49.968;19.844;2024-01-30T11:53:26;43.55;;;21.40;;
20739;SDS011;10530;49.968;19.844;2024-01-30T11:58:29;44.87;;;22.30;;
20739;SDS011;10530;49.968;19.844;2024-01-30T12:03:32;48.72;;;23.88;;
20739;SDS011;10530;49.968;19.844;2024-01-30T12:08:35;49.60;;;24.37;;
20739;SDS011;10530;49.968;19.844;2024-01-30T12:13:38;51.25;;;25.27;;
20739;SDS011;10530;49.968;19.844;2024-01-30T12:18:41;53.33;;;26.02;;
20739;SDS011;10530;49.968;19.844;2024-01-30T12:23:44;53.17;;;25.87;;
20739;SDS011;10530;49.968;19.844;2024-01-30T12:28:48;52.25;;;25.48;;
20739;SDS011;10530;49.968;19.844;2024-01-30T12:33:54;47.20;;;23.80;;
20739;SDS011;10530;49.968;19.844;2024-01-30T12:39:00;41.70;;;21.92;;
20739;SDS011;10530;49.968;19.844;2024-01-30T12:44:04;40.47;;;20.65;;
20739;SDS011;10530;49.968;19.844;2024-01-30T12:49:07;41.53;;;20.67;;
20739;SDS011;10530;49.968;19.844;2024-01-30T12:54:12;44.05;;;21.95;;
20739;SDS011;10530;49.968;19.844;2024-01-30T12:59:15;48.33;;;23.33;;
20739;SDS011;10530;49.968;19.844;2024-01-30T13:04:18;51.65;;;23.33;;
20739;SDS011;10530;49.968;19.844;2024-01-30T13:09:23;45.80;;;23.08;;
20739;SDS011;10530;49.968;19.844;2024-01-30T13:14:26;48.83;;;24.90;;
20739;SDS011;10530;49.968;19.844;2024-01-30T13:19:29;51.38;;;24.73;;
20739;SDS011;10530;49.968;19.844;2024-01-30T13:24:32;51.10;;;24.60;;
20739;SDS011;10530;49.968;19.844;2024-01-30T13:29:36;49.25;;;24.60;;
20739;SDS011;10530;49.968;19.844;2024-01-30T13:34:39;50.95;;;24.27;;
20739;SDS011;10530;49.968;19.844;2024-01-30T13:39:43;53.50;;;24.63;;
20739;SDS011;10530;49.968;19.844;2024-01-30T13:44:46;56.70;;;27.35;;
20739;SDS011;10530;49.968;19.844;2024-01-30T13:49:51;61.33;;;29.23;;
20739;SDS011;10530;49.968;19.844;2024-01-30T13:54:55;58.33;;;27.95;;
20739;SDS011;10530;49.968;19.844;2024-01-30T13:59:59;52.28;;;26.35;;
20739;SDS011;10530;49.968;19.844;2024-01-30T14:05:02;48.67;;;23.70;;
20739;SDS011;10530;49.968;19.844;2024-01-30T14:10:07;48.20;;;23.02;;
20739;SDS011;10530;49.968;19.844;2024-01-30T14:15:14;43.57;;;20.33;;
20739;SDS011;10530;49.968;19.844;2024-01-30T14:20:29;48.90;;;20.23;;
20739;SDS011;10530;49.968;19.844;2024-01-30T14:25:33;48.92;;;20.13;;
20739;SDS011;10530;49.968;19.844;2024-01-30T14:30:36;48.93;;;18.60;;
20739;SDS011;10530;49.968;19.844;2024-01-30T14:35:39;50.28;;;19.25;;
20739;SDS011;10530;49.968;19.844;2024-01-30T14:40:42;45.90;;;18.10;;
20739;SDS011;10530;49.968;19.844;2024-01-30T14:45:45;42.60;;;18.95;;
20739;SDS011;10530;49.968;19.844;2024-01-30T14:50:51;45.42;;;18.00;;
20739;SDS011;10530;49.968;19.844;2024-01-30T14:55:54;41.37;;;16.67;;
20739;SDS011;10530;49.968;19.844;2024-01-30T15:00:57;48.42;;;17.90;;
20739;SDS011;10530;49.968;19.844;2024-01-30T15:06:01;38.80;;;16.07;;
20739;SDS011;10530;49.968;19.844;2024-01-30T15:11:07;41.35;;;16.63;;
20739;SDS011;10530;49.968;19.844;2024-01-30T15:16:10;43.10;;;15.55;;
20739;SDS011;10530;49.968;19.844;2024-01-30T15:21:13;41.57;;;15.87;;
20739;SDS011;10530;49.968;19.844;2024-01-30T15:26:16;45.35;;;16.05;;
20739;SDS011;10530;49.968;19.844;2024-01-30T15:31:20;35.60;;;13.07;;
20739;SDS011;10530;49.968;19.844;2024-01-30T15:36:23;41.97;;;15.60;;
20739;SDS011;10530;49.968;19.844;2024-01-30T15:41:26;36.83;;;13.95;;
20739;SDS011;10530;49.968;19.844;2024-01-30T15:46:29;39.20;;;15.50;;
20739;SDS011;10530;49.968;19.844;2024-01-30T15:51:32;38.13;;;14.23;;
20739;SDS011;10530;49.968;19.844;2024-01-30T15:56:36;39.43;;;14.23;;
20739;SDS011;10530;49.968;19.844;2024-01-30T16:02:05;37.25;;;13.68;;
20739;SDS011;10530;49.968;19.844;2024-01-30T16:07:31;31.27;;;13.07;;
20739;SDS011;10530;49.968;19.844;2024-01-30T16:12:53;31.70;;;13.97;;
20739;SDS011;10530;49.968;19.844;2024-01-30T16:18:16;29.40;;;12.52;;
20739;SDS011;10530;49.968;19.844;2024-01-30T16:23:39;43.57;;;14.47;;
20739;SDS011;10530;49.968;19.844;2024-01-30T16:29:03;32.30;;;12.55;;
20739;SDS011;10530;49.968;19.844;2024-01-30T16:34:25;27.27;;;11.68;;
20739;SDS011;10530;49.968;19.844;2024-01-30T16:39:47;32.73;;;12.83;;
20739;SDS011;10530;49.968;19.844;2024-01-30T16:45:09;35.78;;;12.38;;
20739;SDS011;10530;49.968;19.844;2024-01-30T16:50:32;29.07;;;10.90;;
20739;SDS011;10530;49.968;19.844;2024-01-30T16:55:57;29.80;;;11.38;;
20739;SDS011;10530;49.968;19.844;2024-01-30T17:01:20;27.05;;;10.55;;
20739;SDS011;10530;49.968;19.844;2024-01-30T17:06:43;30.30;;;11.00;;
20739;SDS011;10530;49.968;19.844;2024-01-30T17:12:05;32.03;;;11.57;;
20739;SDS011;10530;49.968;19.844;2024-01-30T17:17:27;27.40;;;10.63;;
20739;SDS011;10530;49.968;19.844;2024-01-30T17:22:49;29.40;;;10.90;;
20739;SDS011;10530;49.968;19.844;2024-01-30T17:28:12;23.52;;;10.88;;
20739;SDS011;10530;49.968;19.844;2024-01-30T17:33:34;24.97;;;10.43;;
20739;SDS011;10530;49.968;19.844;2024-01-30T17:38:59;28.48;;;10.60;;
20739;SDS011;10530;49.968;19.844;2024-01-30T17:44:25;31.30;;;10.83;;
20739;SDS011;10530;49.968;19.844;2024-01-30T17:49:47;25.88;;;10.43;;
20739;SDS011;10530;49.968;19.844;2024-01-30T17:54:53;35.13;;;13.45;;
20739;SDS011;10530;49.968;19.844;2024-01-30T17:59:57;31.27;;;13.50;;
20739;SDS011;10530;49.968;19.844;2024-01-30T18:05:01;33.58;;;13.52;;
20739;SDS011;10530;49.968;19.844;2024-01-30T18:10:05;35.47;;;13.83;;
20739;SDS011;10530;49.968;19.844;2024-01-30T18:15:08;28.35;;;12.57;;
20739;SDS011;10530;49.968;19.844;2024-01-30T18:20:13;32.03;;;12.52;;
20739;SDS011;10530;49.968;19.844;2024-01-30T18:25:16;33.53;;;10.30;;
20739;SDS011;10530;49.968;19.844;2024-01-30T18:30:19;27.73;;;12.02;;
20739;SDS011;10530;49.968;19.844;2024-01-30T18:35:22;27.00;;;10.03;;
20739;SDS011;10530;49.968;19.844;2024-01-30T18:40:25;26.38;;;10.13;;
20739;SDS011;10530;49.968;19.844;2024-01-30T18:45:28;27.85;;;10.80;;
20739;SDS011;10530;49.968;19.844;2024-01-30T18:50:31;25.70;;;9.53;;
20739;SDS011;10530;49.968;19.844;2024-01-30T18:55:35;26.27;;;10.40;;
20739;SDS011;10530;49.968;19.844;2024-01-30T19:00:38;19.20;;;8.50;;
20739;SDS011;10530;49.968;19.844;2024-01-30T19:05:46;24.48;;;8.70;;
20739;SDS011;10530;49.968;19.844;2024-01-30T19:10:50;22.95;;;9.32;;
20739;SDS011;10530;49.968;19.844;2024-01-30T19:15:54;23.43;;;7.90;;
20739;SDS011;10530;49.968;19.844;2024-01-30T19:20:59;19.02;;;8.50;;
20739;SDS011;10530;49.968;19.844;2024-01-30T19:26:02;21.43;;;7.93;;
20739;SDS011;10530;49.968;19.844;2024-01-30T19:31:06;23.15;;;8.23;;
20739;SDS011;10530;49.968;19.844;2024-01-30T19:36:10;22.20;;;7.88;;
20739;SDS011;10530;49.968;19.844;2024-01-30T19:41:13;21.33;;;8.33;;
20739;SDS011;10530;49.968;19.844;2024-01-30T19:46:16;24.60;;;9.57;;
20739;SDS011;10530;49.968;19.844;2024-01-30T19:51:19;21.30;;;7.47;;
20739;SDS011;10530;49.968;19.844;2024-01-30T19:56:22;22.55;;;8.20;;
20739;SDS011;10530;49.968;19.844;2024-01-30T20:01:26;22.17;;;8.60;;
20739;SDS011;10530;49.968;19.844;2024-01-30T20:06:29;32.40;;;8.27;;
20739;SDS011;10530;49.968;19.844;2024-01-30T20:11:32;24.70;;;8.13;;
20739;SDS011;10530;49.968;19.844;2024-01-30T20:16:36;22.33;;;8.17;;
20739;SDS011;10530;49.968;19.844;2024-01-30T20:21:39;19.55;;;7.40;;
20739;SDS011;10530;49.968;19.844;2024-01-30T20:26:42;25.35;;;8.18;;
20739;SDS011;10530;49.968;19.844;2024-01-30T20:31:45;18.10;;;8.33;;
20739;SDS011;10530;49.968;19.844;2024-01-30T20:36:48;29.48;;;9.23;;
20739;SDS011;10530;49.968;19.844;2024-01-30T20:41:52;23.67;;;9.60;;
20739;SDS011;10530;49.968;19.844;2024-01-30T20:46:55;25.88;;;9.50;;
20739;SDS011;10530;49.968;19.844;2024-01-30T20:51:58;22.20;;;8.65;;
20739;SDS011;10530;49.968;19.844;2024-01-30T20:57:01;23.13;;;8.40;;
20739;SDS011;10530;49.968;19.844;2024-01-30T21:02:05;20.13;;;8.52;;
20739;SDS011;10530;49.968;19.844;2024-01-30T21:07:08;24.97;;;8.83;;
20739;SDS011;10530;49.968;19.844;2024-01-30T21:12:12;25.50;;;8.35;;
20739;SDS011;10530;49.968;19.844;2024-01-30T21:17:15;26.45;;;8.82;;
20739;SDS011;10530;49.968;19.844;2024-01-30T21:22:19;20.40;;;8.00;;
20739;SDS011;10530;49.968;19.844;2024-01-30T21:27:22;21.20;;;9.02;;
20739;SDS011;10530;49.968;19.844;2024-01-30T21:32:25;28.33;;;9.70;;
20739;SDS011;10530;49.968;19.844;2024-01-30T21:37:29;27.20;;;8.13;;
20739;SDS011;10530;49.968;19.844;2024-01-30T21:42:32;32.30;;;9.45;;
20739;SDS011;10530;49.968;19.844;2024-01-30T21:47:35;26.23;;;9.43;;
20739;SDS011;10530;49.968;19.844;2024-01-30T21:52:38;25.83;;;8.93;;
20739;SDS011;10530;49.968;19.844;2024-01-30T21:57:41;23.33;;;10.33;;
20739;SDS011;10530;49.968;19.844;2024-01-30T22:02:44;35.45;;;9.43;;
20739;SDS011;10530;49.968;19.844;2024-01-30T22:07:48;27.15;;;8.57;;
20739;SDS011;10530;49.968;19.844;2024-01-30T22:12:51;20.23;;;8.73;;
20739;SDS011;10530;49.968;19.844;2024-01-30T22:17:54;25.05;;;9.77;;
20739;SDS011;10530;49.968;19.844;2024-01-30T22:22:57;18.77;;;7.63;;
20739;SDS011;10530;49.968;19.844;2024-01-30T22:28:00;19.45;;;7.25;;
20739;SDS011;10530;49.968;19.844;2024-01-30T22:33:03;20.45;;;7.85;;
20739;SDS011;10530;49.968;19.844;2024-01-30T22:38:08;20.70;;;7.47;;
20739;SDS011;10530;49.968;19.844;2024-01-30T22:43:12;18.88;;;8.38;;
20739;SDS011;10530;49.968;19.844;2024-01-30T22:48:15;26.77;;;7.93;;
20739;SDS011;10530;49.968;19.844;2024-01-30T22:53:18;23.27;;;8.60;;
20739;SDS011;10530;49.968;19.844;2024-01-30T22:58:21;19.55;;;7.43;;
20739;SDS011;10530;49.968;19.844;2024-01-30T23:03:24;18.67;;;7.17;;
20739;SDS011;10530;49.968;19.844;2024-01-30T23:08:29;17.83;;;7.43;;
20739;SDS011;10530;49.968;19.844;2024-01-30T23:13:32;15.97;;;8.00;;
20739;SDS011;10530;49.968;19.844;2024-01-30T23:18:35;20.13;;;7.35;;
20739;SDS011;10530;49.968;19.844;2024-01-30T23:23:38;24.48;;;8.80;;
20739;SDS011;10530;49.968;19.844;2024-01-30T23:28:42;11.03;;;4.73;;
20739;SDS011;10530;49.968;19.844;2024-01-30T23:33:47;20.67;;;6.32;;
20739;SDS011;10530;49.968;19.844;2024-01-30T23:38:50;14.93;;;7.13;;
20739;SDS011;10530;49.968;19.844;2024-01-30T23:43:53;17.02;;;6.15;;
20739;SDS011;10530;49.968;19.844;2024-01-30T23:48:56;20.33;;;7.28;;
20739;SDS011;10530;49.968;19.844;2024-01-30T23:53:59;20.43;;;7.70;;
20739;SDS011;10530;49.968;19.844;2024-01-30T23:59:02;21.58;;;9.35;;
